createdAt,value
2019-03-11T00:04:40.946Z,0.97
2019-03-11T00:09:44.463Z,0.73
2019-03-11T00:14:47.979Z,0.20
2019-03-11T00:19:51.511Z,0.20
2019-03-11T00:24:55.038Z,0.27
2019-03-11T00:29:58.314Z,0.27
2019-03-11T00:35:01.605Z,0.40
2019-03-11T00:40:08.460Z,0.30
2019-03-11T00:45:13.676Z,0.73
2019-03-11T00:50:16.951Z,0.73
2019-03-11T00:55:20.237Z,0.77
2019-03-11T01:00:35.674Z,0.70
2019-03-11T01:05:39.192Z,0.80
2019-03-11T01:10:42.716Z,0.83
2019-03-11T01:15:46.003Z,0.80
2019-03-11T01:20:49.529Z,0.50
2019-03-11T01:25:53.209Z,0.40
2019-03-11T01:30:56.487Z,1.23
2019-03-11T01:35:59.771Z,0.60
2019-03-11T01:41:03.054Z,0.73
2019-03-11T01:46:06.333Z,0.67
2019-03-11T01:51:09.617Z,0.90
2019-03-11T01:56:12.901Z,1.03
2019-03-11T02:01:16.418Z,1.97
2019-03-11T02:06:19.689Z,1.77
2019-03-11T02:11:23.207Z,1.43
2019-03-11T02:16:26.490Z,1.40
2019-03-11T02:21:30.025Z,1.87
2019-03-11T02:26:33.548Z,1.77
2019-03-11T02:31:36.835Z,1.80
2019-03-11T02:36:40.169Z,0.90
2019-03-11T02:41:43.457Z,1.23
2019-03-11T02:46:46.967Z,2.00
2019-03-11T02:51:50.505Z,1.40
2019-03-11T02:56:54.022Z,1.83
2019-03-11T03:01:59.180Z,1.20
2019-03-11T03:07:02.455Z,1.03
2019-03-11T03:12:06.131Z,1.20
2019-03-11T03:17:09.409Z,1.27
2019-03-11T03:22:12.694Z,1.23
2019-03-11T03:27:15.994Z,1.80
2019-03-11T03:32:19.285Z,1.53
2019-03-11T03:37:22.815Z,1.47
2019-03-11T03:42:26.099Z,1.43
2019-03-11T03:47:29.390Z,1.63
2019-03-11T03:52:32.909Z,1.20
2019-03-11T03:57:36.189Z,1.57
2019-03-11T04:02:39.726Z,1.47
2019-03-11T04:07:43.002Z,0.80
2019-03-11T04:12:46.573Z,0.80
2019-03-11T04:17:49.855Z,1.20
2019-03-11T04:22:53.442Z,1.30
2019-03-11T04:27:57.062Z,1.37
2019-03-11T04:33:00.569Z,0.90
2019-03-11T04:38:03.869Z,1.03
2019-03-11T04:43:07.383Z,1.43
2019-03-11T04:48:10.913Z,1.57
2019-03-11T04:53:14.437Z,1.90
2019-03-11T04:58:17.712Z,1.93
2019-03-11T05:03:20.994Z,1.90
2019-03-11T05:08:24.528Z,2.13
2019-03-11T05:13:28.053Z,1.57
2019-03-11T05:18:31.560Z,1.30
2019-03-11T05:23:35.095Z,1.30
2019-03-11T05:28:38.383Z,1.30
2019-03-11T05:33:41.661Z,1.07
2019-03-11T05:38:45.182Z,2.60
2019-03-11T05:43:48.699Z,1.63
2019-03-11T05:48:51.993Z,2.13
2019-03-11T05:53:55.281Z,1.27
2019-03-11T05:58:58.798Z,1.70
2019-03-11T06:04:02.308Z,1.60
2019-03-11T06:09:07.295Z,1.10
2019-03-11T06:14:10.807Z,1.70
2019-03-11T06:19:14.080Z,1.70
2019-03-11T06:24:17.592Z,1.60
2019-03-11T06:29:30.053Z,2.20
2019-03-11T06:34:25.926Z,1.90
2019-03-11T06:39:29.458Z,3.70
2019-03-11T06:44:32.974Z,4.07
2019-03-11T06:49:36.490Z,4.33
2019-03-11T06:54:40.012Z,4.37
2019-03-11T06:59:43.291Z,3.77
2019-03-11T07:04:46.803Z,4.07
2019-03-11T07:09:50.320Z,3.83
2019-03-11T07:14:53.598Z,4.93
2019-03-11T07:19:56.875Z,4.67
2019-03-11T07:25:00.507Z,5.27
2019-03-11T07:30:06.063Z,5.13
2019-03-11T07:35:09.347Z,5.23
2019-03-11T07:40:14.497Z,5.00
2019-03-11T07:45:17.889Z,5.33
2019-03-11T07:50:21.179Z,6.27
2019-03-11T07:55:24.486Z,6.60
2019-03-11T08:00:27.994Z,5.60
2019-03-11T08:05:31.274Z,6.37
2019-03-11T08:10:34.546Z,6.37
2019-03-11T08:15:37.830Z,6.50
2019-03-11T08:20:41.111Z,6.83
2019-03-11T08:25:44.385Z,6.83
2019-03-11T08:30:47.720Z,6.43
2019-03-11T08:35:51.066Z,6.67
2019-03-11T08:40:54.627Z,6.20
2019-03-11T08:45:57.907Z,5.97
2019-03-11T08:51:01.198Z,6.07
2019-03-11T08:56:04.546Z,5.23
2019-03-11T09:01:07.832Z,4.97
2019-03-11T09:06:11.161Z,4.00
2019-03-11T09:11:14.685Z,5.30
2019-03-11T09:16:18.199Z,5.23
2019-03-11T09:21:21.468Z,4.27
2019-03-11T09:26:24.756Z,4.07
2019-03-11T09:31:28.267Z,4.90
2019-03-11T09:36:31.571Z,5.30
2019-03-11T09:41:35.083Z,5.20
2019-03-11T09:46:38.376Z,4.73
2019-03-11T09:51:41.883Z,4.03
2019-03-11T09:56:45.423Z,4.53
2019-03-11T10:01:48.708Z,4.23
2019-03-11T10:06:52.247Z,4.30
2019-03-11T10:11:55.830Z,3.80
2019-03-11T10:16:59.352Z,3.83
2019-03-11T10:22:02.632Z,4.10
2019-03-11T10:27:05.994Z,4.27
2019-03-11T10:32:09.293Z,4.20
2019-03-11T10:37:12.579Z,4.00
2019-03-11T10:42:16.122Z,3.70
2019-03-11T10:47:19.653Z,3.57
2019-03-11T10:52:23.185Z,3.87
2019-03-11T10:57:26.748Z,3.60
2019-03-11T11:02:30.287Z,4.60
2019-03-11T11:07:33.576Z,4.10
2019-03-11T11:12:41.648Z,5.07
2019-03-11T11:17:45.337Z,5.20
2019-03-11T11:22:49.001Z,5.63
2019-03-11T11:27:52.288Z,5.50
2019-03-11T11:32:55.649Z,4.03
2019-03-11T11:37:59.141Z,2.77
2019-03-11T11:43:02.422Z,2.63
2019-03-11T11:48:08.236Z,2.17
2019-03-11T11:53:10.703Z,1.70
2019-03-11T11:58:14.169Z,1.83
2019-03-11T12:03:17.711Z,1.70
2019-03-11T12:08:21.009Z,2.13
2019-03-11T12:13:24.532Z,2.53
2019-03-11T12:18:31.496Z,2.00
2019-03-11T12:23:45.625Z,1.57
2019-03-11T12:28:39.774Z,1.37
2019-03-11T12:33:43.289Z,1.90
2019-03-11T12:38:46.560Z,1.67
2019-03-11T12:43:50.086Z,1.20
2019-03-11T12:48:53.386Z,0.90
2019-03-11T12:53:56.658Z,1.67
2019-03-11T12:58:59.939Z,1.50
2019-03-11T13:04:05.447Z,2.27
2019-03-11T13:09:10.758Z,1.83
2019-03-11T13:14:14.036Z,1.30
2019-03-11T13:19:17.558Z,1.40
2019-03-11T13:24:20.833Z,1.43
2019-03-11T13:29:24.121Z,1.17
2019-03-11T13:34:27.637Z,1.10
2019-03-11T13:39:33.653Z,0.90
2019-03-11T13:44:36.929Z,0.90
2019-03-11T13:49:40.448Z,0.80
2019-03-11T13:54:43.730Z,0.80
2019-03-11T13:59:47.010Z,1.03
2019-03-11T14:04:50.542Z,1.23
2019-03-11T14:09:53.831Z,0.97
2019-03-11T14:14:57.355Z,0.97
2019-03-11T14:20:00.877Z,1.00
2019-03-11T14:25:05.389Z,0.77
2019-03-11T14:30:12.129Z,0.60
2019-03-11T14:35:15.422Z,1.10
2019-03-11T14:40:20.076Z,1.10
2019-03-11T14:45:24.066Z,0.73
2019-03-11T14:50:27.598Z,0.70
2019-03-11T14:55:31.123Z,0.70
2019-03-11T15:00:34.399Z,0.93
2019-03-11T15:05:37.927Z,1.07
2019-03-11T15:10:41.198Z,1.00
2019-03-11T15:15:44.722Z,1.27
2019-03-11T15:20:48.274Z,0.73
2019-03-11T15:25:51.624Z,0.80
2019-03-11T15:30:55.814Z,1.50
2019-03-11T15:35:59.315Z,0.93
2019-03-11T15:41:02.773Z,0.50
2019-03-11T15:46:06.047Z,1.00
2019-03-11T15:51:09.564Z,0.97
2019-03-11T15:56:14.500Z,0.90
2019-03-11T16:01:20.444Z,0.80
2019-03-11T16:06:23.264Z,1.10
2019-03-11T16:11:26.817Z,1.07
2019-03-11T16:16:32.166Z,1.00
2019-03-11T16:21:35.967Z,1.13
2019-03-11T16:26:39.256Z,1.10
2019-03-11T16:31:42.530Z,1.03
2019-03-11T16:36:46.080Z,1.13
2019-03-11T16:41:49.357Z,0.73
2019-03-11T16:46:52.646Z,1.80
2019-03-11T16:51:56.172Z,1.30
2019-03-11T16:56:59.711Z,1.20
2019-03-11T17:02:03.314Z,0.77
2019-03-11T17:07:06.847Z,0.67
2019-03-11T17:12:10.379Z,0.90
2019-03-11T17:17:13.903Z,0.70
2019-03-11T17:22:17.460Z,0.70
2019-03-11T17:27:21.006Z,0.90
2019-03-11T17:32:24.628Z,1.20
2019-03-11T17:37:28.130Z,0.83
2019-03-11T17:42:31.426Z,0.73
2019-03-11T17:47:34.727Z,2.57
2019-03-11T17:52:38.338Z,1.10
2019-03-11T17:57:41.926Z,0.90
2019-03-11T18:02:45.210Z,0.80
2019-03-11T18:07:48.792Z,1.07
2019-03-11T18:12:52.459Z,1.43
2019-03-11T18:17:55.719Z,1.20
2019-03-11T18:22:59.017Z,1.40
2019-03-11T18:28:02.348Z,1.40
2019-03-11T18:33:05.623Z,1.23
2019-03-11T18:38:08.924Z,1.37
2019-03-11T18:43:20.261Z,1.03
2019-03-11T18:48:17.267Z,0.80
2019-03-11T18:53:20.562Z,1.03
2019-03-11T18:58:24.086Z,1.23
2019-03-11T19:03:27.620Z,1.27
2019-03-11T19:08:31.150Z,1.40
2019-03-11T19:13:34.500Z,1.37
2019-03-11T19:18:39.559Z,1.40
2019-03-11T19:23:43.056Z,1.40
2019-03-11T19:28:46.368Z,1.70
2019-03-11T19:33:49.908Z,1.27
2019-03-11T19:38:53.410Z,1.17
2019-03-11T19:43:56.700Z,1.43
2019-03-11T19:49:00.214Z,1.17
2019-03-11T19:54:03.793Z,1.40
2019-03-11T19:59:07.103Z,1.43
2019-03-11T20:04:10.357Z,1.40
2019-03-11T20:09:14.890Z,1.70
2019-03-11T20:14:18.211Z,1.33
2019-03-11T20:19:21.507Z,1.23
2019-03-11T20:24:24.804Z,1.47
2019-03-11T20:29:28.277Z,1.37
2019-03-11T20:34:31.549Z,1.43
2019-03-11T20:39:35.072Z,0.90
2019-03-11T20:44:38.635Z,0.70
2019-03-11T20:49:42.123Z,0.90
2019-03-11T20:54:45.432Z,1.03
2019-03-11T20:59:48.921Z,1.23
2019-03-11T21:04:52.428Z,1.47
2019-03-11T21:09:55.949Z,1.50
2019-03-11T21:14:59.519Z,1.20
2019-03-11T21:20:13.539Z,2.10
2019-03-11T21:25:17.121Z,1.70
2019-03-11T21:30:22.746Z,2.03
2019-03-11T21:35:26.564Z,1.27
2019-03-11T21:40:29.949Z,1.10
2019-03-11T21:45:34.703Z,1.60
2019-03-11T21:50:38.539Z,1.40
2019-03-11T21:55:41.789Z,1.07
2019-03-11T22:00:45.051Z,1.13
2019-03-11T22:05:48.326Z,1.23
2019-03-11T22:10:51.849Z,1.17
2019-03-11T22:15:55.132Z,1.10
2019-03-11T22:20:58.660Z,1.57
2019-03-11T22:26:03.564Z,1.50
2019-03-11T22:31:06.808Z,1.97
2019-03-11T22:36:13.099Z,2.87
2019-03-11T22:41:16.402Z,2.60
2019-03-11T22:46:19.906Z,1.97
2019-03-11T22:51:23.185Z,3.07
2019-03-11T22:56:26.478Z,2.33
2019-03-11T23:01:29.772Z,2.57
2019-03-11T23:06:33.048Z,1.90
2019-03-11T23:11:36.572Z,2.00
2019-03-11T23:16:39.906Z,2.20
2019-03-11T23:21:43.188Z,2.40
2019-03-11T23:26:46.463Z,2.87
2019-03-11T23:31:49.738Z,2.23
2019-03-11T23:36:53.258Z,2.30
2019-03-11T23:41:56.773Z,2.10
2019-03-11T23:47:00.286Z,2.17
2019-03-11T23:52:03.572Z,2.50
2019-03-11T23:57:06.913Z,1.73
